sensor_id;sensor_type;location;lat;lon;timestamp;P1;durP1;ratioP1;P2;durP2;ratioP2
79268;SDS011;68714;48.586;7.772;2023-03-23T00:37:35;31.98;;;25.40;;
79268;SDS011;68714;48.586;7.772;2023-03-23T00:40:01;33.25;;;25.02;;
79268;SDS011;68714;48.586;7.772;2023-03-23T00:42:30;34.00;;;25.65;;
79268;SDS011;68714;48.586;7.772;2023-03-23T00:45:01;31.75;;;23.38;;
79268;SDS011;68714;48.586;7.772;2023-03-23T00:47:27;21.77;;;14.95;;
79268;SDS011;68714;48.586;7.772;2023-03-23T00:49:52;14.23;;;10.20;;
79268;SDS011;68714;48.586;7.772;2023-03-23T00:52:20;13.32;;;9.65;;
79268;SDS011;68714;48.586;7.772;2023-03-23T00:54:46;8.70;;;6.28;;
79268;SDS011;68714;48.586;7.772;2023-03-23T00:57:11;5.80;;;3.90;;
79268;SDS011;68714;48.586;7.772;2023-03-23T00:59:37;4.85;;;3.10;;
79268;SDS011;68714;48.586;7.772;2023-03-23T01:02:02;3.78;;;2.60;;
79268;SDS011;68714;48.586;7.772;2023-03-23T01:04:28;4.55;;;2.58;;
79268;SDS011;68714;48.586;7.772;2023-03-23T01:06:56;3.80;;;2.20;;
79268;SDS011;68714;48.586;7.772;2023-03-23T01:09:22;5.00;;;1.80;;
79268;SDS011;68714;48.586;7.772;2023-03-23T02:56:51;2.10;;;0.88;;
79268;SDS011;68714;48.586;7.772;2023-03-23T02:59:17;2.15;;;1.30;;
79268;SDS011;68714;48.586;7.772;2023-03-23T03:04:13;4.80;;;1.30;;
79268;SDS011;68714;48.586;7.772;2023-03-23T03:06:48;2.20;;;1.20;;
79268;SDS011;68714;48.586;7.772;2023-03-23T03:09:18;3.80;;;1.20;;
79268;SDS011;68714;48.586;7.772;2023-03-23T03:12:01;2.30;;;1.10;;
79268;SDS011;68714;48.586;7.772;2023-03-23T03:14:37;2.47;;;1.27;;
79268;SDS011;68714;48.586;7.772;2023-03-23T03:17:25;1.17;;;0.88;;
79268;SDS011;68714;48.586;7.772;2023-03-23T03:19:57;3.28;;;1.38;;
79268;SDS011;68714;48.586;7.772;2023-03-23T03:22:35;1.95;;;1.00;;
79268;SDS011;68714;48.586;7.772;2023-03-23T03:25:07;3.63;;;1.10;;
79268;SDS011;68714;48.586;7.772;2023-03-23T03:27:34;1.63;;;0.95;;
79268;SDS011;68714;48.586;7.772;2023-03-23T03:30:01;2.25;;;1.10;;
79268;SDS011;68714;48.586;7.772;2023-03-23T03:32:41;2.93;;;1.23;;
79268;SDS011;68714;48.586;7.772;2023-03-23T03:35:11;1.83;;;1.23;;
79268;SDS011;68714;48.586;7.772;2023-03-23T03:37:37;2.17;;;1.10;;
79268;SDS011;68714;48.586;7.772;2023-03-23T03:40:05;2.67;;;1.20;;
79268;SDS011;68714;48.586;7.772;2023-03-23T03:42:36;1.70;;;1.20;;
79268;SDS011;68714;48.586;7.772;2023-03-23T03:45:03;4.15;;;1.00;;
79268;SDS011;68714;48.586;7.772;2023-03-23T03:47:29;2.13;;;1.40;;
79268;SDS011;68714;48.586;7.772;2023-03-23T03:49:54;2.05;;;1.10;;
79268;SDS011;68714;48.586;7.772;2023-03-23T03:52:19;3.03;;;1.58;;
79268;SDS011;68714;48.586;7.772;2023-03-23T03:54:45;2.35;;;1.30;;
79268;SDS011;68714;48.586;7.772;2023-03-23T03:57:11;2.72;;;1.38;;
79268;SDS011;68714;48.586;7.772;2023-03-23T03:59:36;2.55;;;1.00;;
79268;SDS011;68714;48.586;7.772;2023-03-23T04:02:02;2.63;;;1.38;;
79268;SDS011;68714;48.586;7.772;2023-03-23T04:04:28;3.28;;;1.58;;
79268;SDS011;68714;48.586;7.772;2023-03-23T04:06:54;1.83;;;1.15;;
79268;SDS011;68714;48.586;7.772;2023-03-23T04:09:19;2.35;;;1.20;;
79268;SDS011;68714;48.586;7.772;2023-03-23T04:11:46;3.03;;;1.55;;
79268;SDS011;68714;48.586;7.772;2023-03-23T04:14:11;2.80;;;1.45;;
79268;SDS011;68714;48.586;7.772;2023-03-23T06:11:17;1.83;;;0.95;;
79268;SDS011;68714;48.586;7.772;2023-03-23T06:13:43;1.92;;;1.23;;
79268;SDS011;68714;48.586;7.772;2023-03-23T06:16:09;3.40;;;1.30;;
79268;SDS011;68714;48.586;7.772;2023-03-23T06:18:35;2.38;;;1.20;;
79268;SDS011;68714;48.586;7.772;2023-03-23T06:21:02;2.47;;;1.10;;
79268;SDS011;68714;48.586;7.772;2023-03-23T06:23:28;2.22;;;1.17;;
79268;SDS011;68714;48.586;7.772;2023-03-23T06:25:55;3.97;;;1.35;;
79268;SDS011;68714;48.586;7.772;2023-03-23T06:28:24;2.30;;;1.17;;
79268;SDS011;68714;48.586;7.772;2023-03-23T06:30:50;2.80;;;1.20;;
79268;SDS011;68714;48.586;7.772;2023-03-23T06:33:15;1.98;;;1.25;;
79268;SDS011;68714;48.586;7.772;2023-03-23T06:35:42;3.55;;;2.10;;
79268;SDS011;68714;48.586;7.772;2023-03-23T06:38:08;2.70;;;1.67;;
79268;SDS011;68714;48.586;7.772;2023-03-23T06:40:34;2.53;;;1.40;;
79268;SDS011;68714;48.586;7.772;2023-03-23T06:43:01;2.10;;;1.27;;
79268;SDS011;68714;48.586;7.772;2023-03-23T06:45:28;2.92;;;1.25;;
79268;SDS011;68714;48.586;7.772;2023-03-23T06:47:55;2.13;;;1.15;;
79268;SDS011;68714;48.586;7.772;2023-03-23T06:50:20;3.60;;;1.42;;
79268;SDS011;68714;48.586;7.772;2023-03-23T06:52:46;2.88;;;1.40;;
79268;SDS011;68714;48.586;7.772;2023-03-23T06:55:13;2.38;;;1.40;;
79268;SDS011;68714;48.586;7.772;2023-03-23T06:57:39;2.25;;;1.35;;
79268;SDS011;68714;48.586;7.772;2023-03-23T07:00:06;3.45;;;1.60;;
79268;SDS011;68714;48.586;7.772;2023-03-23T07:02:39;2.30;;;1.17;;
79268;SDS011;68714;48.586;7.772;2023-03-23T07:05:07;4.43;;;2.28;;
79268;SDS011;68714;48.586;7.772;2023-03-23T07:07:34;2.28;;;1.35;;
79268;SDS011;68714;48.586;7.772;2023-03-23T07:10:00;2.58;;;1.50;;
79268;SDS011;68714;48.586;7.772;2023-03-23T07:12:26;2.13;;;1.02;;
79268;SDS011;68714;48.586;7.772;2023-03-23T07:14:52;1.52;;;1.10;;
79268;SDS011;68714;48.586;7.772;2023-03-23T07:17:17;2.03;;;1.30;;
79268;SDS011;68714;48.586;7.772;2023-03-23T07:19:43;3.10;;;1.30;;
79268;SDS011;68714;48.586;7.772;2023-03-23T07:22:08;2.08;;;1.40;;
79268;SDS011;68714;48.586;7.772;2023-03-23T07:24:34;2.05;;;1.20;;
79268;SDS011;68714;48.586;7.772;2023-03-23T07:27:00;3.13;;;0.90;;
79268;SDS011;68714;48.586;7.772;2023-03-23T07:29:26;2.15;;;0.93;;
79268;SDS011;68714;48.586;7.772;2023-03-23T07:31:52;1.88;;;1.27;;
79268;SDS011;68714;48.586;7.772;2023-03-23T07:34:18;4.95;;;1.10;;
79268;SDS011;68714;48.586;7.772;2023-03-23T07:36:44;3.70;;;1.20;;
79268;SDS011;68714;48.586;7.772;2023-03-23T07:39:10;1.58;;;1.17;;
79268;SDS011;68714;48.586;7.772;2023-03-23T07:41:37;3.97;;;1.10;;
79268;SDS011;68714;48.586;7.772;2023-03-23T07:44:02;2.33;;;0.82;;
79268;SDS011;68714;48.586;7.772;2023-03-23T07:46:28;6.18;;;1.30;;
79268;SDS011;68714;48.586;7.772;2023-03-23T07:48:54;2.38;;;0.90;;
79268;SDS011;68714;48.586;7.772;2023-03-23T07:51:20;2.83;;;1.52;;
79268;SDS011;68714;48.586;7.772;2023-03-23T07:53:46;2.47;;;1.25;;
79268;SDS011;68714;48.586;7.772;2023-03-23T07:56:12;2.75;;;0.95;;
79268;SDS011;68714;48.586;7.772;2023-03-23T07:58:42;2.92;;;0.93;;
79268;SDS011;68714;48.586;7.772;2023-03-23T08:01:09;8.70;;;3.45;;
79268;SDS011;68714;48.586;7.772;2023-03-23T08:03:35;2.47;;;0.90;;
79268;SDS011;68714;48.586;7.772;2023-03-23T08:06:00;6.30;;;1.00;;
79268;SDS011;68714;48.586;7.772;2023-03-23T08:08:26;1.70;;;1.00;;
79268;SDS011;68714;48.586;7.772;2023-03-23T08:10:51;1.67;;;1.02;;
79268;SDS011;68714;48.586;7.772;2023-03-23T08:13:17;3.28;;;1.05;;
79268;SDS011;68714;48.586;7.772;2023-03-23T08:15:43;2.08;;;1.05;;
79268;SDS011;68714;48.586;7.772;2023-03-23T08:18:09;2.63;;;1.00;;
79268;SDS011;68714;48.586;7.772;2023-03-23T08:20:35;2.03;;;1.20;;
79268;SDS011;68714;48.586;7.772;2023-03-23T08:23:01;2.95;;;1.13;;
79268;SDS011;68714;48.586;7.772;2023-03-23T08:25:28;1.95;;;1.08;;
79268;SDS011;68714;48.586;7.772;2023-03-23T08:27:56;2.70;;;0.85;;
79268;SDS011;68714;48.586;7.772;2023-03-23T08:30:22;1.60;;;0.95;;
79268;SDS011;68714;48.586;7.772;2023-03-23T08:32:49;2.20;;;1.10;;
79268;SDS011;68714;48.586;7.772;2023-03-23T08:35:16;1.73;;;1.00;;
79268;SDS011;68714;48.586;7.772;2023-03-23T08:37:42;2.25;;;0.85;;
79268;SDS011;68714;48.586;7.772;2023-03-23T08:40:08;2.05;;;1.00;;
79268;SDS011;68714;48.586;7.772;2023-03-23T08:42:36;1.80;;;0.90;;
79268;SDS011;68714;48.586;7.772;2023-03-23T08:45:03;2.33;;;1.00;;
79268;SDS011;68714;48.586;7.772;2023-03-23T08:47:33;1.25;;;0.85;;
79268;SDS011;68714;48.586;7.772;2023-03-23T08:50:00;1.67;;;0.93;;
79268;SDS011;68714;48.586;7.772;2023-03-23T08:52:26;2.50;;;1.02;;
79268;SDS011;68714;48.586;7.772;2023-03-23T08:54:53;2.53;;;1.02;;
79268;SDS011;68714;48.586;7.772;2023-03-23T08:57:19;2.10;;;1.02;;
79268;SDS011;68714;48.586;7.772;2023-03-23T08:59:44;1.45;;;0.90;;
79268;SDS011;68714;48.586;7.772;2023-03-23T09:02:10;1.40;;;1.10;;
79268;SDS011;68714;48.586;7.772;2023-03-23T09:04:37;3.42;;;1.15;;
79268;SDS011;68714;48.586;7.772;2023-03-23T09:07:07;3.08;;;1.00;;
79268;SDS011;68714;48.586;7.772;2023-03-23T09:09:35;1.63;;;0.80;;
79268;SDS011;68714;48.586;7.772;2023-03-23T09:12:02;1.10;;;0.82;;
79268;SDS011;68714;48.586;7.772;2023-03-23T09:14:27;1.65;;;0.88;;
79268;SDS011;68714;48.586;7.772;2023-03-23T09:16:53;1.75;;;0.98;;
79268;SDS011;68714;48.586;7.772;2023-03-23T09:19:18;1.98;;;1.10;;
79268;SDS011;68714;48.586;7.772;2023-03-23T09:21:45;2.17;;;1.00;;
79268;SDS011;68714;48.586;7.772;2023-03-23T09:24:10;1.15;;;0.80;;
79268;SDS011;68714;48.586;7.772;2023-03-23T09:26:36;2.03;;;0.95;;
79268;SDS011;68714;48.586;7.772;2023-03-23T09:29:01;1.35;;;0.95;;
79268;SDS011;68714;48.586;7.772;2023-03-23T09:31:27;2.80;;;0.90;;
79268;SDS011;68714;48.586;7.772;2023-03-23T09:33:54;2.30;;;0.82;;
79268;SDS011;68714;48.586;7.772;2023-03-23T09:36:21;3.63;;;1.27;;
79268;SDS011;68714;48.586;7.772;2023-03-23T09:38:48;1.65;;;0.93;;
79268;SDS011;68714;48.586;7.772;2023-03-23T09:47:02;3.30;;;1.00;;
79268;SDS011;68714;48.586;7.772;2023-03-23T09:59:46;2.88;;;1.63;;
79268;SDS011;68714;48.586;7.772;2023-03-23T10:02:21;4.95;;;1.60;;
79268;SDS011;68714;48.586;7.772;2023-03-23T10:04:54;3.17;;;1.50;;
79268;SDS011;68714;48.586;7.772;2023-03-23T10:07:24;2.40;;;1.50;;
79268;SDS011;68714;48.586;7.772;2023-03-23T10:09:53;2.63;;;1.83;;
79268;SDS011;68714;48.586;7.772;2023-03-23T10:12:30;3.25;;;1.50;;
79268;SDS011;68714;48.586;7.772;2023-03-23T10:25:52;2.42;;;1.48;;
79268;SDS011;68714;48.586;7.772;2023-03-23T10:28:35;3.38;;;1.30;;
79268;SDS011;68714;48.586;7.772;2023-03-23T10:31:04;2.03;;;0.95;;
79268;SDS011;68714;48.586;7.772;2023-03-23T10:38:40;1.88;;;0.80;;
79268;SDS011;68714;48.586;7.772;2023-03-23T10:41:25;2.58;;;1.10;;
79268;SDS011;68714;48.586;7.772;2023-03-23T10:43:51;1.30;;;1.00;;
79268;SDS011;68714;48.586;7.772;2023-03-23T10:49:24;2.17;;;1.33;;
79268;SDS011;68714;48.586;7.772;2023-03-23T10:51:57;2.28;;;1.02;;
79268;SDS011;68714;48.586;7.772;2023-03-23T10:54:37;2.35;;;1.20;;
79268;SDS011;68714;48.586;7.772;2023-03-23T10:57:33;2.17;;;1.20;;
79268;SDS011;68714;48.586;7.772;2023-03-23T11:05:24;2.15;;;1.13;;
79268;SDS011;68714;48.586;7.772;2023-03-23T11:07:54;2.08;;;1.00;;
79268;SDS011;68714;48.586;7.772;2023-03-23T11:10:25;1.88;;;1.15;;
79268;SDS011;68714;48.586;7.772;2023-03-23T11:12:57;3.55;;;1.25;;
79268;SDS011;68714;48.586;7.772;2023-03-23T11:18:04;2.08;;;1.00;;
79268;SDS011;68714;48.586;7.772;2023-03-23T11:20:35;1.42;;;1.15;;
79268;SDS011;68714;48.586;7.772;2023-03-23T11:23:21;2.17;;;1.17;;
79268;SDS011;68714;48.586;7.772;2023-03-23T11:25:54;2.75;;;0.93;;
79268;SDS011;68714;48.586;7.772;2023-03-23T11:28:34;2.05;;;1.08;;
79268;SDS011;68714;48.586;7.772;2023-03-23T11:31:03;2.67;;;1.20;;
79268;SDS011;68714;48.586;7.772;2023-03-23T11:33:47;2.42;;;1.13;;
79268;SDS011;68714;48.586;7.772;2023-03-23T11:36:19;3.72;;;1.38;;
79268;SDS011;68714;48.586;7.772;2023-03-23T11:38:45;3.92;;;1.55;;
79268;SDS011;68714;48.586;7.772;2023-03-23T11:41:11;2.95;;;1.33;;
79268;SDS011;68714;48.586;7.772;2023-03-23T11:43:43;2.35;;;1.50;;
79268;SDS011;68714;48.586;7.772;2023-03-23T11:46:29;2.45;;;1.45;;
79268;SDS011;68714;48.586;7.772;2023-03-23T11:49:08;2.30;;;1.38;;
79268;SDS011;68714;48.586;7.772;2023-03-23T11:51:47;1.88;;;1.23;;
79268;SDS011;68714;48.586;7.772;2023-03-23T11:56:47;1.80;;;1.10;;
79268;SDS011;68714;48.586;7.772;2023-03-23T11:59:17;4.22;;;1.60;;
79268;SDS011;68714;48.586;7.772;2023-03-23T12:01:55;2.10;;;1.52;;
79268;SDS011;68714;48.586;7.772;2023-03-23T12:04:37;2.53;;;1.42;;
79268;SDS011;68714;48.586;7.772;2023-03-23T12:10:08;2.20;;;1.15;;
79268;SDS011;68714;48.586;7.772;2023-03-23T12:23:24;3.40;;;1.55;;
79268;SDS011;68714;48.586;7.772;2023-03-23T12:33:58;2.45;;;1.13;;
79268;SDS011;68714;48.586;7.772;2023-03-23T12:50:20;1.67;;;0.93;;
79268;SDS011;68714;48.586;7.772;2023-03-23T12:52:58;1.63;;;1.13;;
79268;SDS011;68714;48.586;7.772;2023-03-23T12:55:39;2.47;;;1.13;;
79268;SDS011;68714;48.586;7.772;2023-03-23T12:58:20;3.95;;;1.05;;
79268;SDS011;68714;48.586;7.772;2023-03-23T13:00:57;1.27;;;1.05;;
79268;SDS011;68714;48.586;7.772;2023-03-23T13:03:28;2.15;;;1.17;;
79268;SDS011;68714;48.586;7.772;2023-03-23T13:06:09;1.73;;;1.00;;
79268;SDS011;68714;48.586;7.772;2023-03-23T13:08:47;1.60;;;1.05;;
79268;SDS011;68714;48.586;7.772;2023-03-23T13:11:16;2.80;;;1.50;;
79268;SDS011;68714;48.586;7.772;2023-03-23T13:13:54;1.27;;;0.98;;
79268;SDS011;68714;48.586;7.772;2023-03-23T13:21:30;3.05;;;1.02;;
79268;SDS011;68714;48.586;7.772;2023-03-23T13:24:08;1.88;;;0.95;;
79268;SDS011;68714;48.586;7.772;2023-03-23T13:26:38;2.92;;;1.20;;
79268;SDS011;68714;48.586;7.772;2023-03-23T13:31:34;2.73;;;0.93;;
79268;SDS011;68714;48.586;7.772;2023-03-23T13:36:43;1.58;;;0.90;;
79268;SDS011;68714;48.586;7.772;2023-03-23T13:39:23;2.03;;;1.15;;
79268;SDS011;68714;48.586;7.772;2023-03-23T13:49:58;3.75;;;1.20;;
79268;SDS011;68714;48.586;7.772;2023-03-23T14:05:38;2.10;;;1.02;;
79268;SDS011;68714;48.586;7.772;2023-03-23T14:10:36;1.55;;;1.13;;
79268;SDS011;68714;48.586;7.772;2023-03-23T14:13:14;1.75;;;0.93;;
79268;SDS011;68714;48.586;7.772;2023-03-23T14:18:47;2.22;;;1.13;;
79268;SDS011;68714;48.586;7.772;2023-03-23T14:21:17;1.38;;;0.90;;
79268;SDS011;68714;48.586;7.772;2023-03-23T14:23:49;2.13;;;1.40;;
79268;SDS011;68714;48.586;7.772;2023-03-23T14:26:16;2.97;;;1.17;;
79268;SDS011;68714;48.586;7.772;2023-03-23T14:28:44;1.10;;;0.82;;
79268;SDS011;68714;48.586;7.772;2023-03-23T14:31:22;2.38;;;1.30;;
79268;SDS011;68714;48.586;7.772;2023-03-23T14:33:49;1.75;;;1.40;;
79268;SDS011;68714;48.586;7.772;2023-03-23T14:36:29;2.50;;;1.20;;
79268;SDS011;68714;48.586;7.772;2023-03-23T14:41:24;2.83;;;1.30;;
79268;SDS011;68714;48.586;7.772;2023-03-23T14:43:54;2.00;;;1.23;;
79268;SDS011;68714;48.586;7.772;2023-03-23T14:46:19;2.13;;;1.30;;
79268;SDS011;68714;48.586;7.772;2023-03-23T14:48:45;3.65;;;1.23;;
79268;SDS011;68714;48.586;7.772;2023-03-23T14:51:17;2.28;;;1.30;;
79268;SDS011;68714;48.586;7.772;2023-03-23T14:53:43;2.30;;;1.30;;
79268;SDS011;68714;48.586;7.772;2023-03-23T14:56:13;2.42;;;1.30;;
79268;SDS011;68714;48.586;7.772;2023-03-23T14:58:44;2.08;;;1.40;;
79268;SDS011;68714;48.586;7.772;2023-03-23T15:01:12;2.75;;;1.35;;
79268;SDS011;68714;48.586;7.772;2023-03-23T15:03:49;3.50;;;1.73;;
79268;SDS011;68714;48.586;7.772;2023-03-23T15:06:19;2.15;;;1.40;;
79268;SDS011;68714;48.586;7.772;2023-03-23T15:08:48;3.53;;;1.25;;
79268;SDS011;68714;48.586;7.772;2023-03-23T15:13:45;3.65;;;1.27;;
79268;SDS011;68714;48.586;7.772;2023-03-23T15:16:17;2.88;;;1.38;;
79268;SDS011;68714;48.586;7.772;2023-03-23T15:18:53;2.38;;;1.50;;
79268;SDS011;68714;48.586;7.772;2023-03-23T15:21:28;2.50;;;1.20;;
79268;SDS011;68714;48.586;7.772;2023-03-23T15:23:56;2.85;;;1.08;;
79268;SDS011;68714;48.586;7.772;2023-03-23T15:29:04;2.53;;;1.10;;
79268;SDS011;68714;48.586;7.772;2023-03-23T15:31:48;1.83;;;1.15;;
79268;SDS011;68714;48.586;7.772;2023-03-23T15:37:04;3.05;;;1.33;;
79268;SDS011;68714;48.586;7.772;2023-03-23T15:39:40;3.38;;;2.03;;
79268;SDS011;68714;48.586;7.772;2023-03-23T15:42:06;3.97;;;2.80;;
79268;SDS011;68714;48.586;7.772;2023-03-23T15:44:32;5.63;;;4.88;;
79268;SDS011;68714;48.586;7.772;2023-03-23T15:47:15;45.67;;;37.13;;
79268;SDS011;68714;48.586;7.772;2023-03-23T15:49:43;45.33;;;38.92;;
79268;SDS011;68714;48.586;7.772;2023-03-23T15:52:11;39.05;;;27.50;;
79268;SDS011;68714;48.586;7.772;2023-03-23T15:54:38;26.15;;;19.40;;
79268;SDS011;68714;48.586;7.772;2023-03-23T15:57:03;15.82;;;12.85;;
79268;SDS011;68714;48.586;7.772;2023-03-23T15:59:29;9.80;;;7.03;;
79268;SDS011;68714;48.586;7.772;2023-03-23T16:01:54;6.65;;;4.40;;
79268;SDS011;68714;48.586;7.772;2023-03-23T16:04:21;38.85;;;34.95;;
79268;SDS011;68714;48.586;7.772;2023-03-23T16:06:47;31.25;;;27.60;;
79268;SDS011;68714;48.586;7.772;2023-03-23T16:09:17;22.65;;;19.50;;
79268;SDS011;68714;48.586;7.772;2023-03-23T16:11:44;10.35;;;8.13;;
79268;SDS011;68714;48.586;7.772;2023-03-23T16:14:10;7.57;;;5.38;;
79268;SDS011;68714;48.586;7.772;2023-03-23T16:19:03;3.83;;;2.47;;
79268;SDS011;68714;48.586;7.772;2023-03-23T16:21:30;4.50;;;1.80;;
79268;SDS011;68714;48.586;7.772;2023-03-23T16:23:55;4.18;;;1.95;;
79268;SDS011;68714;48.586;7.772;2023-03-23T16:26:21;2.72;;;1.30;;
79268;SDS011;68714;48.586;7.772;2023-03-23T16:28:47;2.20;;;1.30;;
79268;SDS011;68714;48.586;7.772;2023-03-23T16:31:12;2.30;;;1.23;;
79268;SDS011;68714;48.586;7.772;2023-03-23T16:33:38;1.80;;;1.10;;
79268;SDS011;68714;48.586;7.772;2023-03-23T16:36:03;2.97;;;1.35;;
79268;SDS011;68714;48.586;7.772;2023-03-23T16:38:29;2.38;;;1.15;;
79268;SDS011;68714;48.586;7.772;2023-03-23T16:40:55;1.92;;;1.20;;
79268;SDS011;68714;48.586;7.772;2023-03-23T16:43:20;1.73;;;1.00;;
79268;SDS011;68714;48.586;7.772;2023-03-23T16:45:46;1.42;;;1.00;;
79268;SDS011;68714;48.586;7.772;2023-03-23T16:48:12;2.03;;;1.20;;
79268;SDS011;68714;48.586;7.772;2023-03-23T16:50:40;2.03;;;1.00;;
79268;SDS011;68714;48.586;7.772;2023-03-23T16:53:07;2.03;;;1.30;;
79268;SDS011;68714;48.586;7.772;2023-03-23T16:55:33;2.47;;;1.05;;
79268;SDS011;68714;48.586;7.772;2023-03-23T16:57:59;3.33;;;1.35;;
79268;SDS011;68714;48.586;7.772;2023-03-23T17:00:25;2.08;;;1.20;;
79268;SDS011;68714;48.586;7.772;2023-03-23T17:02:51;2.22;;;1.30;;
79268;SDS011;68714;48.586;7.772;2023-03-23T17:05:21;2.05;;;1.20;;
79268;SDS011;68714;48.586;7.772;2023-03-23T17:07:48;2.58;;;1.15;;
79268;SDS011;68714;48.586;7.772;2023-03-23T17:10:14;2.05;;;1.50;;
79268;SDS011;68714;48.586;7.772;2023-03-23T17:12:41;3.83;;;1.20;;
79268;SDS011;68714;48.586;7.772;2023-03-23T17:15:06;4.78;;;1.30;;
79268;SDS011;68714;48.586;7.772;2023-03-23T17:17:33;2.55;;;1.17;;
79268;SDS011;68714;48.586;7.772;2023-03-23T17:19:59;2.05;;;1.20;;
79268;SDS011;68714;48.586;7.772;2023-03-23T17:22:24;2.55;;;1.10;;
79268;SDS011;68714;48.586;7.772;2023-03-23T17:24:50;1.95;;;1.15;;
79268;SDS011;68714;48.586;7.772;2023-03-23T17:27:17;1.90;;;1.27;;
79268;SDS011;68714;48.586;7.772;2023-03-23T17:29:43;2.63;;;1.20;;
79268;SDS011;68714;48.586;7.772;2023-03-23T17:32:10;2.30;;;1.15;;
79268;SDS011;68714;48.586;7.772;2023-03-23T17:34:36;4.03;;;1.60;;
79268;SDS011;68714;48.586;7.772;2023-03-23T17:37:02;2.55;;;1.13;;
79268;SDS011;68714;48.586;7.772;2023-03-23T17:39:28;4.43;;;1.30;;
79268;SDS011;68714;48.586;7.772;2023-03-23T17:41:56;5.25;;;1.42;;
79268;SDS011;68714;48.586;7.772;2023-03-23T17:44:22;3.42;;;1.08;;
79268;SDS011;68714;48.586;7.772;2023-03-23T17:46:48;2.65;;;1.40;;
79268;SDS011;68714;48.586;7.772;2023-03-23T17:49:13;4.22;;;1.40;;
79268;SDS011;68714;48.586;7.772;2023-03-23T17:51:39;2.83;;;1.50;;
79268;SDS011;68714;48.586;7.772;2023-03-23T17:54:04;5.53;;;1.85;;
79268;SDS011;68714;48.586;7.772;2023-03-23T17:56:30;3.58;;;1.60;;
79268;SDS011;68714;48.586;7.772;2023-03-23T17:58:56;2.10;;;1.30;;
79268;SDS011;68714;48.586;7.772;2023-03-23T18:01:21;3.10;;;1.50;;
79268;SDS011;68714;48.586;7.772;2023-03-23T18:03:47;4.30;;;2.70;;
79268;SDS011;68714;48.586;7.772;2023-03-23T18:06:12;6.47;;;3.30;;
79268;SDS011;68714;48.586;7.772;2023-03-23T18:08:38;4.10;;;2.85;;
79268;SDS011;68714;48.586;7.772;2023-03-23T18:11:04;3.92;;;2.78;;
79268;SDS011;68714;48.586;7.772;2023-03-23T18:13:31;5.55;;;2.30;;
79268;SDS011;68714;48.586;7.772;2023-03-23T18:15:57;3.67;;;1.75;;
79268;SDS011;68714;48.586;7.772;2023-03-23T18:18:23;2.78;;;1.40;;
79268;SDS011;68714;48.586;7.772;2023-03-23T18:21:08;3.95;;;1.70;;
79268;SDS011;68714;48.586;7.772;2023-03-23T18:23:35;3.75;;;1.10;;
79268;SDS011;68714;48.586;7.772;2023-03-23T18:26:02;1.98;;;1.35;;
79268;SDS011;68714;48.586;7.772;2023-03-23T18:28:29;2.78;;;1.45;;
79268;SDS011;68714;48.586;7.772;2023-03-23T18:31:00;2.30;;;1.40;;
79268;SDS011;68714;48.586;7.772;2023-03-23T18:33:34;2.58;;;1.50;;
79268;SDS011;68714;48.586;7.772;2023-03-23T18:36:02;2.65;;;1.50;;
79268;SDS011;68714;48.586;7.772;2023-03-23T18:38:29;2.58;;;1.40;;
79268;SDS011;68714;48.586;7.772;2023-03-23T18:40:55;2.00;;;1.20;;
79268;SDS011;68714;48.586;7.772;2023-03-23T18:43:20;2.35;;;1.38;;
79268;SDS011;68714;48.586;7.772;2023-03-23T18:45:53;2.28;;;1.20;;
79268;SDS011;68714;48.586;7.772;2023-03-23T18:48:21;2.47;;;1.40;;
79268;SDS011;68714;48.586;7.772;2023-03-23T18:50:48;3.42;;;1.60;;
79268;SDS011;68714;48.586;7.772;2023-03-23T18:53:15;2.40;;;1.30;;
79268;SDS011;68714;48.586;7.772;2023-03-23T18:55:42;2.58;;;1.30;;
79268;SDS011;68714;48.586;7.772;2023-03-23T18:58:08;1.83;;;1.00;;
79268;SDS011;68714;48.586;7.772;2023-03-23T19:00:35;2.10;;;1.45;;
79268;SDS011;68714;48.586;7.772;2023-03-23T19:03:01;3.65;;;1.38;;
79268;SDS011;68714;48.586;7.772;2023-03-23T19:05:28;3.47;;;1.25;;
79268;SDS011;68714;48.586;7.772;2023-03-23T19:07:54;2.75;;;1.50;;
79268;SDS011;68714;48.586;7.772;2023-03-23T19:10:20;1.85;;;1.08;;
79268;SDS011;68714;48.586;7.772;2023-03-23T19:12:47;2.25;;;1.50;;
79268;SDS011;68714;48.586;7.772;2023-03-23T19:15:13;2.75;;;1.40;;
79268;SDS011;68714;48.586;7.772;2023-03-23T19:17:39;4.57;;;1.50;;
79268;SDS011;68714;48.586;7.772;2023-03-23T19:20:05;2.40;;;1.23;;
79268;SDS011;68714;48.586;7.772;2023-03-23T19:22:34;2.83;;;1.40;;
79268;SDS011;68714;48.586;7.772;2023-03-23T19:25:04;3.58;;;1.60;;
79268;SDS011;68714;48.586;7.772;2023-03-23T19:27:32;1.80;;;1.40;;
79268;SDS011;68714;48.586;7.772;2023-03-23T19:29:58;2.38;;;1.27;;
79268;SDS011;68714;48.586;7.772;2023-03-23T19:32:23;2.58;;;0.95;;
79268;SDS011;68714;48.586;7.772;2023-03-23T19:34:49;2.67;;;1.42;;
79268;SDS011;68714;48.586;7.772;2023-03-23T19:37:14;2.53;;;1.30;;
79268;SDS011;68714;48.586;7.772;2023-03-23T19:39:40;2.50;;;1.58;;
79268;SDS011;68714;48.586;7.772;2023-03-23T19:42:05;2.60;;;1.38;;
79268;SDS011;68714;48.586;7.772;2023-03-23T19:44:32;1.90;;;1.40;;
79268;SDS011;68714;48.586;7.772;2023-03-23T19:46:57;1.88;;;1.25;;
79268;SDS011;68714;48.586;7.772;2023-03-23T19:49:23;2.88;;;1.20;;
79268;SDS011;68714;48.586;7.772;2023-03-23T19:51:49;2.33;;;1.25;;
79268;SDS011;68714;48.586;7.772;2023-03-23T19:54:16;2.35;;;1.00;;
79268;SDS011;68714;48.586;7.772;2023-03-23T19:56:42;1.90;;;1.20;;
79268;SDS011;68714;48.586;7.772;2023-03-23T19:59:07;1.92;;;1.08;;
79268;SDS011;68714;48.586;7.772;2023-03-23T20:01:35;2.25;;;1.40;;
79268;SDS011;68714;48.586;7.772;2023-03-23T20:04:00;3.85;;;2.58;;
79268;SDS011;68714;48.586;7.772;2023-03-23T20:06:28;3.30;;;1.65;;
79268;SDS011;68714;48.586;7.772;2023-03-23T20:08:54;3.03;;;1.88;;
79268;SDS011;68714;48.586;7.772;2023-03-23T20:11:21;7.05;;;1.90;;
79268;SDS011;68714;48.586;7.772;2023-03-23T20:13:46;3.13;;;1.65;;
79268;SDS011;68714;48.586;7.772;2023-03-23T20:16:12;2.50;;;1.50;;
79268;SDS011;68714;48.586;7.772;2023-03-23T20:18:39;3.88;;;1.30;;
79268;SDS011;68714;48.586;7.772;2023-03-23T20:21:05;2.67;;;1.45;;
79268;SDS011;68714;48.586;7.772;2023-03-23T20:23:35;1.98;;;1.27;;
79268;SDS011;68714;48.586;7.772;2023-03-23T20:26:06;2.80;;;1.50;;
79268;SDS011;68714;48.586;7.772;2023-03-23T20:28:39;3.70;;;1.65;;
79268;SDS011;68714;48.586;7.772;2023-03-23T20:31:08;2.10;;;1.55;;
79268;SDS011;68714;48.586;7.772;2023-03-23T20:36:02;1.65;;;1.20;;
79268;SDS011;68714;48.586;7.772;2023-03-23T20:38:30;2.53;;;1.40;;
79268;SDS011;68714;48.586;7.772;2023-03-23T20:40:59;4.22;;;2.05;;
79268;SDS011;68714;48.586;7.772;2023-03-23T20:43:26;4.05;;;1.67;;
79268;SDS011;68714;48.586;7.772;2023-03-23T20:45:54;4.40;;;1.98;;
79268;SDS011;68714;48.586;7.772;2023-03-23T20:48:22;2.88;;;1.65;;
79268;SDS011;68714;48.586;7.772;2023-03-23T20:50:49;2.63;;;1.50;;
79268;SDS011;68714;48.586;7.772;2023-03-23T20:53:14;2.88;;;1.40;;
79268;SDS011;68714;48.586;7.772;2023-03-23T20:55:41;4.07;;;1.63;;
79268;SDS011;68714;48.586;7.772;2023-03-23T20:58:06;2.85;;;1.50;;
79268;SDS011;68714;48.586;7.772;2023-03-23T21:00:32;2.47;;;1.30;;
79268;SDS011;68714;48.586;7.772;2023-03-23T21:02:57;3.60;;;1.58;;
79268;SDS011;68714;48.586;7.772;2023-03-23T21:05:23;2.15;;;1.02;;
79268;SDS011;68714;48.586;7.772;2023-03-23T21:07:49;2.13;;;1.50;;
79268;SDS011;68714;48.586;7.772;2023-03-23T21:10:15;5.22;;;1.50;;
79268;SDS011;68714;48.586;7.772;2023-03-23T21:12:40;3.53;;;1.90;;
79268;SDS011;68714;48.586;7.772;2023-03-23T21:15:06;1.90;;;1.38;;
79268;SDS011;68714;48.586;7.772;2023-03-23T21:17:32;2.40;;;1.40;;
79268;SDS011;68714;48.586;7.772;2023-03-23T21:19:57;2.35;;;1.75;;
79268;SDS011;68714;48.586;7.772;2023-03-23T21:22:23;2.40;;;1.30;;
79268;SDS011;68714;48.586;7.772;2023-03-23T21:24:48;1.70;;;1.13;;